createdAt,value
2018-02-21T00:01:21.897Z,15.25
2018-02-21T00:03:49.401Z,17.37
2018-02-21T00:06:16.897Z,18.12
2018-02-21T00:08:44.397Z,16.83
2018-02-21T00:11:11.889Z,16.73
2018-02-21T00:13:39.392Z,16.67
2018-02-21T00:16:07.645Z,17.10
2018-02-21T00:18:35.141Z,17.87
2018-02-21T00:21:02.650Z,16.90
2018-02-21T00:23:30.150Z,17.98
2018-02-21T00:25:58.413Z,17.77
2018-02-21T00:28:27.629Z,18.17
2018-02-21T00:30:55.121Z,17.73
2018-02-21T00:33:22.622Z,18.98
2018-02-21T00:35:50.899Z,17.52
2018-02-21T00:38:19.172Z,17.08
2018-02-21T00:40:47.437Z,17.02
2018-02-21T00:43:16.524Z,17.23
2018-02-21T00:45:44.053Z,18.80
2018-02-21T00:48:11.627Z,19.02
2018-02-21T00:50:39.825Z,17.90
2018-02-21T00:53:07.346Z,17.15
2018-02-21T00:55:34.855Z,18.50
2018-02-21T00:58:03.179Z,17.60
2018-02-21T01:00:30.701Z,16.17
2018-02-21T01:02:58.197Z,16.77
2018-02-21T01:05:25.668Z,18.27
2018-02-21T01:07:53.165Z,17.40
2018-02-21T01:10:21.413Z,17.85
2018-02-21T01:12:48.896Z,17.52
2018-02-21T01:15:17.227Z,17.33
2018-02-21T01:17:44.716Z,16.15
2018-02-21T01:20:12.291Z,15.70
2018-02-21T01:22:40.567Z,15.75
2018-02-21T01:25:08.844Z,16.05
2018-02-21T01:27:37.096Z,20.65
2018-02-21T01:30:04.580Z,20.65
2018-02-21T01:32:32.828Z,18.67
2018-02-21T01:35:00.316Z,19.98
2018-02-21T01:37:28.579Z,18.83
2018-02-21T01:39:56.828Z,20.37
2018-02-21T01:42:24.313Z,20.27
2018-02-21T01:44:52.592Z,17.87
2018-02-21T01:47:20.835Z,16.67
2018-02-21T01:49:48.317Z,18.80
2018-02-21T01:52:16.606Z,18.10
2018-02-21T01:54:44.880Z,16.30
2018-02-21T01:57:13.156Z,17.35
2018-02-21T01:59:41.416Z,16.70
2018-02-21T02:02:09.677Z,16.50
2018-02-21T02:04:37.252Z,16.85
2018-02-21T02:07:04.750Z,17.37
2018-02-21T02:09:32.236Z,16.85
2018-02-21T02:11:59.768Z,17.35
2018-02-21T02:14:27.253Z,17.67
2018-02-21T02:16:54.845Z,18.77
2018-02-21T02:19:23.094Z,17.58
2018-02-21T02:21:50.571Z,16.90
2018-02-21T02:24:18.073Z,16.83
2018-02-21T02:26:45.560Z,17.23
2018-02-21T02:29:13.041Z,18.05
2018-02-21T02:31:40.559Z,17.15
2018-02-21T02:34:08.048Z,16.98
2018-02-21T02:36:35.629Z,16.95
2018-02-21T02:39:15.743Z,17.87
2018-02-21T02:41:43.220Z,17.83
2018-02-21T02:44:10.706Z,18.73
2018-02-21T02:46:39.044Z,19.48
2018-02-21T02:49:06.631Z,17.62
2018-02-21T02:51:34.895Z,16.33
2018-02-21T02:54:03.155Z,19.67
2018-02-21T02:56:30.649Z,17.90
2018-02-21T02:58:58.910Z,18.52
2018-02-21T03:01:27.166Z,17.65
2018-02-21T03:03:54.645Z,18.80
2018-02-21T03:06:22.893Z,16.80
2018-02-21T03:08:50.402Z,17.73
2018-02-21T03:11:17.896Z,17.92
2018-02-21T03:13:45.380Z,18.80
2018-02-21T03:16:13.738Z,18.45
2018-02-21T03:18:41.352Z,18.37
2018-02-21T03:21:09.015Z,17.62
2018-02-21T03:23:36.719Z,19.58
2018-02-21T03:26:04.213Z,20.12
2018-02-21T03:28:32.578Z,20.75
2018-02-21T03:31:00.272Z,18.25
2018-02-21T03:33:27.874Z,20.25
2018-02-21T03:35:55.364Z,17.77
2018-02-21T03:38:23.196Z,17.95
2018-02-21T03:40:50.911Z,18.30
2018-02-21T03:43:18.503Z,17.67
2018-02-21T03:45:46.150Z,16.75
2018-02-21T03:48:13.833Z,18.95
2018-02-21T03:50:41.448Z,19.33
2018-02-21T03:53:09.692Z,18.48
2018-02-21T03:55:37.243Z,18.08
2018-02-21T03:58:04.832Z,18.52
2018-02-21T04:00:33.071Z,18.37
2018-02-21T04:03:00.559Z,17.33
2018-02-21T04:05:28.044Z,18.45
2018-02-21T04:07:55.536Z,18.60
2018-02-21T04:10:23.015Z,17.52
2018-02-21T04:12:50.495Z,18.23
2018-02-21T04:15:18.747Z,18.60
2018-02-21T04:17:46.324Z,18.52
2018-02-21T04:20:14.564Z,17.52
2018-02-21T04:22:42.056Z,17.92
2018-02-21T04:25:10.300Z,17.83
2018-02-21T04:27:37.909Z,18.23
2018-02-21T04:30:06.207Z,17.35
2018-02-21T04:32:33.688Z,19.25
2018-02-21T04:35:01.175Z,18.08
2018-02-21T04:37:28.735Z,19.62
2018-02-21T04:39:56.227Z,18.35
2018-02-21T04:42:23.797Z,18.83
2018-02-21T04:44:51.302Z,16.40
2018-02-21T04:47:18.786Z,18.60
2018-02-21T04:49:46.284Z,16.85
2018-02-21T04:52:13.879Z,17.67
2018-02-21T04:54:47.128Z,20.15
2018-02-21T04:57:20.432Z,19.27
2018-02-21T04:59:48.701Z,16.70
2018-02-21T05:02:16.181Z,19.17
2018-02-21T05:04:43.659Z,18.37
2018-02-21T05:07:11.137Z,17.35
2018-02-21T05:09:39.388Z,17.65
2018-02-21T05:12:06.880Z,18.15
2018-02-21T05:14:34.389Z,18.87
2018-02-21T05:17:02.772Z,17.98
2018-02-21T05:19:31.756Z,17.87
2018-02-21T05:21:59.237Z,18.80
2018-02-21T05:24:26.805Z,18.52
2018-02-21T05:26:55.061Z,16.83
2018-02-21T05:29:22.545Z,18.73
2018-02-21T05:31:50.844Z,21.37
2018-02-21T05:34:18.329Z,24.08
2018-02-21T05:36:45.816Z,22.75
2018-02-21T05:39:13.295Z,18.00
2018-02-21T05:41:40.846Z,18.12
2018-02-21T05:44:09.116Z,19.23
2018-02-21T05:46:37.383Z,18.65
2018-02-21T05:49:05.636Z,19.45
2018-02-21T05:51:33.136Z,18.75
2018-02-21T05:54:01.379Z,18.83
2018-02-21T05:56:28.862Z,17.08
2018-02-21T05:58:57.133Z,17.83
2018-02-21T06:01:25.380Z,16.37
2018-02-21T06:03:52.968Z,18.02
2018-02-21T06:06:21.209Z,17.52
2018-02-21T06:08:48.812Z,16.27
2018-02-21T06:11:17.080Z,18.10
2018-02-21T06:13:45.390Z,19.35
2018-02-21T06:16:12.868Z,16.62
2018-02-21T06:18:40.351Z,17.35
2018-02-21T06:21:07.830Z,17.50
2018-02-21T06:23:36.090Z,17.10
2018-02-21T06:26:03.639Z,18.48
2018-02-21T06:28:31.148Z,19.37
2018-02-21T06:30:58.635Z,19.67
2018-02-21T06:33:26.125Z,17.95
2018-02-21T06:35:54.386Z,17.62
2018-02-21T06:38:21.863Z,17.98
2018-02-21T06:40:50.117Z,19.02
2018-02-21T06:43:17.597Z,17.25
2018-02-21T06:45:45.852Z,18.70
2018-02-21T06:48:13.341Z,18.62
2018-02-21T06:50:41.588Z,18.15
2018-02-21T06:53:09.160Z,17.98
2018-02-21T06:55:37.420Z,18.08
2018-02-21T06:58:04.904Z,19.02
2018-02-21T07:00:33.157Z,19.40
2018-02-21T07:03:00.640Z,17.60
2018-02-21T07:05:28.891Z,19.83
2018-02-21T07:07:57.136Z,18.20
2018-02-21T07:10:24.619Z,17.85
2018-02-21T07:12:52.112Z,18.58
2018-02-21T07:15:19.624Z,19.42
2018-02-21T07:17:47.082Z,19.98
2018-02-21T07:20:14.664Z,17.98
2018-02-21T07:22:42.244Z,19.20
2018-02-21T07:25:09.818Z,20.75
2018-02-21T07:27:37.322Z,21.15
2018-02-21T07:30:04.808Z,20.08
2018-02-21T07:32:33.071Z,18.65
2018-02-21T07:35:01.322Z,19.60
2018-02-21T07:37:28.805Z,20.00
2018-02-21T07:39:57.056Z,19.75
2018-02-21T07:42:24.544Z,19.92
2018-02-21T07:44:52.786Z,19.70
2018-02-21T07:47:20.292Z,21.33
2018-02-21T07:49:47.834Z,20.92
2018-02-21T07:52:16.104Z,21.42
2018-02-21T07:54:44.364Z,21.05
2018-02-21T07:57:11.958Z,20.33
2018-02-21T07:59:39.437Z,20.17
2018-02-21T08:02:06.930Z,20.48
2018-02-21T08:04:34.431Z,18.83
2018-02-21T08:07:02.552Z,18.77
2018-02-21T08:09:30.141Z,19.25
2018-02-21T08:11:58.417Z,20.48
2018-02-21T08:14:26.708Z,18.45
2018-02-21T08:16:54.192Z,19.45
2018-02-21T08:19:21.682Z,19.80
2018-02-21T08:21:49.170Z,21.42
2018-02-21T08:24:17.673Z,18.45
2018-02-21T08:26:45.289Z,20.30
2018-02-21T08:29:12.979Z,20.17
2018-02-21T08:31:41.690Z,21.42
2018-02-21T08:34:09.226Z,20.37
2018-02-21T08:36:37.564Z,19.27
2018-02-21T08:39:05.032Z,22.48
2018-02-21T08:41:32.504Z,21.08
2018-02-21T08:44:00.760Z,20.33
2018-02-21T08:46:28.248Z,20.77
2018-02-21T08:48:56.495Z,19.70
2018-02-21T08:51:23.990Z,20.58
2018-02-21T08:53:51.464Z,18.73
2018-02-21T08:56:18.975Z,19.33
2018-02-21T08:58:47.284Z,19.58
2018-02-21T09:01:14.856Z,21.73
2018-02-21T09:03:42.337Z,19.45
2018-02-21T09:06:09.872Z,20.40
2018-02-21T09:08:37.349Z,19.48
2018-02-21T09:11:04.832Z,19.67
2018-02-21T09:13:33.072Z,19.23
2018-02-21T09:16:00.573Z,19.77
2018-02-21T09:18:28.832Z,19.42
2018-02-21T09:20:56.327Z,18.90
2018-02-21T09:23:23.804Z,19.08
2018-02-21T09:25:51.328Z,21.67
2018-02-21T09:28:19.579Z,18.87
2018-02-21T09:30:47.052Z,19.30
2018-02-21T09:33:14.540Z,19.90
2018-02-21T09:35:42.019Z,20.45
2018-02-21T09:38:09.573Z,20.88
2018-02-21T09:40:37.075Z,18.37
2018-02-21T09:43:04.564Z,20.90
2018-02-21T09:45:32.048Z,21.30
2018-02-21T09:47:59.528Z,20.48
2018-02-21T09:50:27.012Z,19.77
2018-02-21T09:52:54.572Z,19.37
2018-02-21T09:55:22.825Z,19.67
2018-02-21T09:57:50.303Z,19.15
2018-02-21T10:00:17.784Z,19.37
2018-02-21T10:02:45.308Z,20.12
2018-02-21T10:05:12.898Z,18.17
2018-02-21T10:07:40.380Z,16.67
2018-02-21T10:10:07.868Z,18.92
2018-02-21T10:12:35.357Z,17.65
2018-02-21T10:15:03.666Z,18.23
2018-02-21T10:17:31.945Z,18.50
2018-02-21T10:19:59.432Z,18.10
2018-02-21T10:22:26.918Z,16.10
2018-02-21T10:24:55.176Z,15.13
2018-02-21T10:27:22.651Z,15.55
2018-02-21T10:29:50.904Z,17.17
2018-02-21T10:32:18.381Z,15.38
2018-02-21T10:34:45.941Z,15.95
2018-02-21T10:37:13.655Z,15.30
2018-02-21T10:39:41.152Z,14.32
2018-02-21T10:42:08.631Z,13.50
2018-02-21T10:44:36.894Z,14.10
2018-02-21T10:47:04.376Z,15.05
2018-02-21T10:49:31.873Z,12.63
2018-02-21T10:51:59.406Z,12.35
2018-02-21T10:54:26.924Z,16.37
2018-02-21T10:56:55.179Z,14.52
2018-02-21T10:59:22.767Z,13.60
2018-02-21T11:01:51.028Z,13.20
2018-02-21T11:04:19.285Z,13.48
2018-02-21T11:06:46.883Z,12.60
2018-02-21T11:09:14.438Z,12.20
2018-02-21T11:11:42.703Z,13.80
2018-02-21T11:14:10.955Z,11.73
2018-02-21T11:16:38.450Z,10.63
2018-02-21T11:19:06.716Z,12.20
2018-02-21T11:21:35.031Z,11.20
2018-02-21T11:24:02.520Z,11.27
2018-02-21T11:26:30.112Z,12.05
2018-02-21T11:28:58.367Z,10.80
2018-02-21T11:31:25.945Z,11.52
2018-02-21T11:33:54.224Z,11.75
2018-02-21T11:36:22.495Z,10.50
2018-02-21T11:38:50.752Z,8.90
2018-02-21T11:41:18.348Z,9.43
2018-02-21T11:43:45.835Z,8.95
2018-02-21T11:46:13.320Z,9.77
2018-02-21T11:48:40.804Z,10.80
2018-02-21T11:51:09.063Z,10.63
2018-02-21T11:53:37.321Z,11.10
2018-02-21T11:56:04.805Z,10.63
2018-02-21T11:58:33.059Z,10.05
2018-02-21T12:01:00.544Z,9.82
2018-02-21T12:03:28.853Z,10.85
2018-02-21T12:05:56.371Z,12.02
2018-02-21T12:08:23.942Z,12.15
2018-02-21T12:10:52.229Z,9.65
2018-02-21T12:13:19.729Z,10.82
2018-02-21T12:15:47.292Z,10.07
2018-02-21T12:18:14.880Z,9.13
2018-02-21T12:20:43.161Z,8.45
2018-02-21T12:23:11.400Z,8.05
2018-02-21T12:25:38.896Z,7.90
2018-02-21T12:28:07.168Z,8.27
2018-02-21T12:30:34.661Z,8.57
2018-02-21T12:33:02.675Z,9.43
2018-02-21T12:35:30.161Z,9.80
2018-02-21T12:37:58.434Z,8.65
2018-02-21T12:40:32.477Z,8.55
2018-02-21T12:42:59.952Z,8.05
2018-02-21T12:45:27.458Z,8.80
2018-02-21T12:47:55.736Z,8.10
2018-02-21T12:50:23.985Z,8.90
2018-02-21T12:52:51.573Z,8.35
2018-02-21T12:55:19.829Z,9.98
2018-02-21T12:57:47.320Z,7.97
2018-02-21T13:00:14.832Z,8.93
2018-02-21T13:02:42.435Z,8.70
2018-02-21T13:05:09.975Z,8.80
2018-02-21T13:07:38.243Z,9.82
2018-02-21T13:10:05.814Z,9.65
2018-02-21T13:12:34.065Z,9.90
2018-02-21T13:15:01.637Z,8.68
2018-02-21T13:17:29.196Z,9.60
2018-02-21T13:19:56.680Z,9.35
2018-02-21T13:22:24.161Z,8.60
2018-02-21T13:24:51.638Z,8.10
2018-02-21T13:27:19.119Z,8.50
2018-02-21T13:29:46.791Z,8.30
2018-02-21T13:32:15.040Z,7.82
2018-02-21T13:34:42.519Z,8.52
2018-02-21T13:37:10.009Z,8.98
2018-02-21T13:39:37.537Z,8.50
2018-02-21T13:42:05.819Z,7.53
2018-02-21T13:44:33.296Z,8.07
2018-02-21T13:47:00.828Z,7.43
2018-02-21T13:49:29.105Z,7.18
2018-02-21T13:51:57.341Z,7.70
2018-02-21T13:54:24.829Z,7.65
2018-02-21T13:56:52.304Z,7.07
2018-02-21T13:59:20.560Z,6.80
2018-02-21T14:01:48.131Z,7.72
2018-02-21T14:04:16.385Z,7.20
2018-02-21T14:06:43.869Z,7.85
2018-02-21T14:09:12.127Z,6.75
2018-02-21T14:11:39.695Z,6.53
2018-02-21T14:14:07.964Z,7.03
2018-02-21T14:16:35.532Z,7.20
2018-02-21T14:19:03.812Z,8.07
2018-02-21T14:21:32.060Z,7.00
2018-02-21T14:23:59.724Z,8.32
2018-02-21T14:26:28.015Z,6.85
2018-02-21T14:28:56.277Z,6.87
2018-02-21T14:31:23.866Z,7.28
2018-02-21T14:33:52.140Z,7.75
2018-02-21T14:36:20.392Z,7.47
2018-02-21T14:38:48.632Z,6.72
2018-02-21T14:41:16.136Z,7.82
2018-02-21T14:43:44.385Z,8.23
2018-02-21T14:46:11.872Z,8.35
2018-02-21T14:48:39.344Z,7.93
2018-02-21T14:51:06.905Z,9.27
2018-02-21T14:53:34.387Z,8.15
2018-02-21T14:56:01.900Z,7.85
2018-02-21T14:58:29.380Z,10.25
2018-02-21T15:00:56.916Z,7.28
2018-02-21T15:03:25.176Z,8.50
2018-02-21T15:05:52.660Z,6.75
2018-02-21T15:08:20.919Z,7.55
2018-02-21T15:10:49.172Z,7.00
2018-02-21T15:13:16.648Z,6.82
2018-02-21T15:15:44.133Z,7.35
2018-02-21T15:18:11.627Z,8.05
2018-02-21T15:20:39.103Z,7.07
2018-02-21T15:23:06.688Z,7.22
2018-02-21T15:25:34.965Z,8.38
2018-02-21T15:28:03.274Z,7.45
2018-02-21T15:30:30.745Z,7.80
2018-02-21T15:32:58.223Z,9.07
2018-02-21T15:35:25.804Z,8.55
2018-02-21T15:37:53.285Z,10.00
2018-02-21T15:40:20.780Z,9.82
2018-02-21T15:42:48.321Z,11.27
2018-02-21T15:45:15.865Z,9.30
2018-02-21T15:47:43.308Z,9.40
2018-02-21T15:50:11.557Z,9.68
2018-02-21T15:52:39.132Z,9.07
2018-02-21T15:55:07.384Z,9.40
2018-02-21T15:57:34.867Z,9.05
2018-02-21T16:00:03.140Z,11.15
2018-02-21T16:02:31.388Z,9.30
2018-02-21T16:04:58.971Z,10.25
2018-02-21T16:07:28.117Z,8.40
2018-02-21T16:09:55.599Z,10.40
2018-02-21T16:12:23.088Z,10.38
2018-02-21T16:14:51.332Z,11.15
2018-02-21T16:17:18.813Z,10.07
2018-02-21T16:19:47.073Z,10.48
2018-02-21T16:22:14.580Z,10.23
2018-02-21T16:24:42.065Z,9.40
2018-02-21T16:27:09.608Z,9.82
2018-02-21T16:29:37.097Z,8.90
2018-02-21T16:32:04.578Z,9.30
2018-02-21T16:34:32.834Z,9.90
2018-02-21T16:37:00.330Z,9.20
2018-02-21T16:39:27.864Z,8.55
2018-02-21T16:41:56.129Z,7.87
2018-02-21T16:44:23.652Z,9.02
2018-02-21T16:46:51.138Z,8.50
2018-02-21T16:49:18.628Z,8.07
2018-02-21T16:51:46.879Z,8.13
2018-02-21T16:54:31.968Z,7.90
2018-02-21T16:57:00.220Z,8.38
2018-02-21T16:59:27.701Z,9.23
2018-02-21T17:01:59.948Z,7.95
2018-02-21T17:04:27.419Z,9.20
2018-02-21T17:06:56.022Z,7.80
2018-02-21T17:09:23.509Z,7.93
2018-02-21T17:11:50.987Z,7.90
2018-02-21T17:14:18.470Z,8.45
2018-02-21T17:16:45.948Z,8.63
2018-02-21T17:19:14.192Z,9.27
2018-02-21T17:21:41.768Z,9.18
2018-02-21T17:24:10.040Z,9.20
2018-02-21T17:26:38.315Z,9.20
2018-02-21T17:29:06.563Z,9.05
2018-02-21T17:31:34.061Z,7.80
2018-02-21T17:34:02.312Z,8.77
2018-02-21T17:36:29.783Z,8.80
2018-02-21T17:38:58.035Z,10.20
2018-02-21T17:41:31.183Z,9.25
2018-02-21T17:43:58.704Z,8.07
2018-02-21T17:46:26.956Z,10.15
2018-02-21T17:48:54.545Z,8.57
2018-02-21T17:51:22.025Z,9.77
2018-02-21T17:53:49.558Z,8.98
2018-02-21T17:56:17.812Z,10.88
2018-02-21T17:58:45.286Z,9.85
2018-02-21T18:01:13.536Z,10.10
2018-02-21T18:03:41.050Z,10.13
2018-02-21T18:06:08.579Z,9.23
2018-02-21T18:08:36.851Z,9.50
2018-02-21T18:11:04.408Z,10.40
2018-02-21T18:13:31.952Z,9.68
2018-02-21T18:15:59.555Z,11.05
2018-02-21T18:18:27.077Z,12.60
2018-02-21T18:20:55.372Z,11.90
2018-02-21T18:23:23.632Z,11.63
2018-02-21T18:25:51.126Z,16.90
2018-02-21T18:28:18.604Z,19.85
2018-02-21T18:30:46.093Z,12.82
2018-02-21T18:33:13.676Z,14.43
2018-02-21T18:35:41.991Z,16.25
2018-02-21T18:38:10.203Z,14.75
2018-02-21T18:40:37.729Z,13.48
2018-02-21T18:43:05.212Z,12.80
2018-02-21T18:45:32.795Z,10.82
2018-02-21T18:48:01.047Z,12.73
2018-02-21T18:50:28.528Z,11.40
2018-02-21T18:52:56.777Z,12.20
2018-02-21T18:55:24.255Z,11.40
2018-02-21T18:57:51.746Z,11.65
2018-02-21T19:00:19.271Z,11.52
2018-02-21T19:02:46.835Z,11.15
2018-02-21T19:05:15.088Z,11.38
2018-02-21T19:07:42.581Z,11.38
2018-02-21T19:10:10.836Z,11.12
2018-02-21T19:12:39.113Z,11.30
2018-02-21T19:15:07.492Z,10.52
2018-02-21T19:17:35.820Z,11.25
2018-02-21T19:20:04.156Z,11.48
2018-02-21T19:22:31.638Z,11.35
2018-02-21T19:24:59.128Z,11.57
2018-02-21T19:27:26.630Z,11.95
2018-02-21T19:29:54.910Z,11.88
2018-02-21T19:32:23.169Z,11.95
2018-02-21T19:34:51.431Z,11.85
2018-02-21T19:37:18.959Z,10.20
2018-02-21T19:39:46.476Z,13.30
2018-02-21T19:42:14.780Z,12.57
2018-02-21T19:44:42.269Z,11.98
2018-02-21T19:47:09.769Z,12.37
2018-02-21T19:49:37.268Z,11.10
2018-02-21T19:52:04.756Z,13.20
2018-02-21T19:54:32.332Z,10.73
2018-02-21T19:57:00.585Z,11.40
2018-02-21T19:59:28.072Z,10.70
2018-02-21T20:01:56.359Z,12.18
2018-02-21T20:04:23.877Z,12.73
2018-02-21T20:06:51.383Z,12.70
2018-02-21T20:09:18.885Z,13.23
2018-02-21T20:11:46.384Z,12.88
2018-02-21T20:14:13.888Z,13.32
2018-02-21T20:16:41.419Z,12.40
2018-02-21T20:19:08.865Z,14.20
2018-02-21T20:21:36.352Z,12.45
2018-02-21T20:24:03.843Z,12.18
2018-02-21T20:26:31.341Z,9.90
2018-02-21T20:28:58.945Z,10.70
2018-02-21T20:31:26.684Z,11.02
2018-02-21T20:33:54.173Z,8.77
2018-02-21T20:36:21.680Z,9.20
2018-02-21T20:38:49.203Z,8.18
2018-02-21T20:41:16.683Z,8.65
2018-02-21T20:43:44.327Z,7.85
2018-02-21T20:46:12.657Z,8.85
2018-02-21T20:48:40.139Z,7.43
2018-02-21T20:51:08.313Z,7.95
2018-02-21T20:53:35.788Z,9.73
2018-02-21T20:56:03.272Z,8.00
2018-02-21T20:58:30.975Z,8.15
2018-02-21T21:00:58.857Z,7.90
2018-02-21T21:03:26.436Z,8.23
2018-02-21T21:05:54.684Z,8.45
2018-02-21T21:08:22.164Z,7.22
2018-02-21T21:10:49.649Z,8.52
2018-02-21T21:13:17.148Z,9.40
2018-02-21T21:15:44.747Z,8.45
2018-02-21T21:18:12.996Z,10.10
2018-02-21T21:20:40.480Z,9.23
2018-02-21T21:23:08.796Z,8.15
2018-02-21T21:25:36.280Z,9.05
2018-02-21T21:28:03.786Z,7.93
2018-02-21T21:30:32.029Z,8.15
2018-02-21T21:32:59.729Z,6.68
2018-02-21T21:35:27.213Z,9.45
2018-02-21T21:37:54.718Z,7.93
2018-02-21T21:40:22.972Z,9.38
2018-02-21T21:42:50.551Z,8.50
2018-02-21T21:45:18.880Z,8.75
2018-02-21T21:47:47.084Z,8.68
2018-02-21T21:50:14.569Z,8.43
2018-02-21T21:52:42.812Z,8.82
2018-02-21T21:55:10.411Z,8.05
2018-02-21T21:57:38.651Z,9.90
2018-02-21T22:00:06.155Z,8.52
2018-02-21T22:02:33.652Z,9.32
2018-02-21T22:05:01.137Z,7.80
2018-02-21T22:07:28.623Z,8.38
2018-02-21T22:09:56.103Z,8.48
2018-02-21T22:12:23.596Z,8.40
2018-02-21T22:14:51.172Z,9.23
2018-02-21T22:17:19.428Z,8.48
2018-02-21T22:19:46.905Z,8.13
2018-02-21T22:22:15.159Z,8.63
2018-02-21T22:24:42.643Z,10.60
2018-02-21T22:27:10.991Z,8.77
2018-02-21T22:29:38.496Z,9.70
2018-02-21T22:32:06.035Z,9.00
2018-02-21T22:34:34.276Z,9.18
2018-02-21T22:37:01.748Z,9.93
2018-02-21T22:39:30.008Z,9.20
2018-02-21T22:41:57.488Z,8.10
2018-02-21T22:44:25.056Z,9.15
2018-02-21T22:46:53.304Z,9.52
2018-02-21T22:49:20.820Z,10.10
2018-02-21T22:51:48.328Z,9.98
2018-02-21T22:54:15.805Z,9.70
2018-02-21T22:56:44.080Z,9.18
2018-02-21T22:59:12.356Z,9.60
2018-02-21T23:01:40.593Z,8.90
2018-02-21T23:04:08.187Z,10.43
2018-02-21T23:06:36.449Z,10.43
2018-02-21T23:09:03.941Z,10.32
2018-02-21T23:11:31.455Z,10.55
2018-02-21T23:13:59.080Z,10.43
2018-02-21T23:16:26.568Z,8.95
2018-02-21T23:18:54.048Z,11.23
2018-02-21T23:21:21.532Z,11.02
2018-02-21T23:23:49.016Z,10.00
2018-02-21T23:26:16.533Z,8.73
2018-02-21T23:28:44.780Z,10.05
2018-02-21T23:31:12.269Z,10.63
2018-02-21T23:33:40.523Z,9.85
2018-02-21T23:36:08.100Z,11.10
2018-02-21T23:38:36.508Z,10.07
2018-02-21T23:41:03.988Z,9.30
2018-02-21T23:43:31.466Z,9.55
2018-02-21T23:45:58.949Z,10.05
2018-02-21T23:48:27.207Z,11.18
2018-02-21T23:50:54.718Z,10.65
2018-02-21T23:53:22.210Z,9.90
2018-02-21T23:55:49.736Z,10.43
2018-02-21T23:58:17.255Z,10.23
